Time;durP1;ratioP1;P1;durP2;ratioP2;P2;SDS_P1;SDS_P2;PMS_P1;PMS_P2;Temp;Humidity;BMP_temperature;BMP_pressure;BME280_temperature;BME280_humidity;BME280_pressure;Samples;Min_cycle;Max_cycle;Signal;HPM_P1;HPM_P2
2023/04/06 00:00:42;;;;;;;9.13;6.53;;;;;;;2.32;71.57;94611.63;4993651;28;20184;-74
2023/04/06 00:03:08;;;;;;;7.80;5.77;;;;;;;2.30;72.30;94606.56;5001666;28;20232;-74
2023/04/06 00:05:34;;;;;;;10.10;6.70;;;;;;;2.38;71.60;94601.38;5005564;28;20449;-74
2023/04/06 00:08:00;;;;;;;11.23;7.57;;;;;;;2.44;71.57;94592.09;5011757;28;20433;-74
2023/04/06 00:10:26;;;;;;;11.90;7.53;;;;;;;2.48;70.67;94590.78;5006705;28;20768;-74
2023/04/06 00:12:52;;;;;;;13.10;8.23;;;;;;;2.40;71.19;94591.63;5011090;28;20438;-74
2023/04/06 00:15:17;;;;;;;17.20;8.30;;;;;;;2.46;71.06;94577.97;5012840;28;20213;-74
2023/04/06 00:17:42;;;;;;;14.20;8.07;;;;;;;2.38;71.20;94569.38;5012168;28;20399;-74
2023/04/06 00:20:09;;;;;;;13.47;8.10;;;;;;;2.41;71.73;94575.06;5012184;28;20434;-74
2023/04/06 00:22:35;;;;;;;11.53;7.13;;;;;;;2.25;71.24;94549.13;5000280;28;20283;-74
2023/04/06 00:25:00;;;;;;;12.00;7.03;;;;;;;2.37;71.31;94560.78;5007509;28;20180;-74
2023/04/06 00:27:26;;;;;;;12.70;7.67;;;;;;;2.44;72.17;94566.91;5003214;28;20216;-74
2023/04/06 00:29:51;;;;;;;13.10;8.53;;;;;;;2.28;71.87;94547.03;4992955;28;20675;-74
2023/04/06 00:32:17;;;;;;;22.67;9.00;;;;;;;2.38;71.84;94567.59;5008913;28;20180;-74
2023/04/06 00:34:42;;;;;;;12.23;7.73;;;;;;;2.39;71.87;94560.63;5012073;28;20418;-74
2023/04/06 00:37:07;;;;;;;9.77;6.53;;;;;;;2.40;71.96;94559.66;5012649;28;20997;-74
2023/04/06 00:39:33;;;;;;;13.47;7.00;;;;;;;2.24;72.22;94540.56;5027446;28;20583;-74
2023/04/06 00:41:58;;;;;;;13.60;7.30;;;;;;;2.34;72.45;94561.09;5004186;28;20180;-74
2023/04/06 00:44:24;;;;;;;13.40;7.47;;;;;;;2.35;72.46;94556.72;5011553;28;20779;-74
2023/04/06 00:46:50;;;;;;;11.15;6.78;;;;;;;2.33;72.78;94554.31;5011576;28;20426;-74
2023/04/06 00:49:15;;;;;;;8.30;6.63;;;;;;;2.30;71.38;94552.06;5011767;28;20501;-74
2023/04/06 00:51:41;;;;;;;9.32;7.20;;;;;;;2.16;71.51;94524.97;5026251;28;20417;-74
2023/04/06 00:54:06;;;;;;;10.30;7.17;;;;;;;2.40;72.49;94547.47;5010894;28;20414;-74
2023/04/06 00:56:32;;;;;;;8.50;6.30;;;;;;;2.39;71.75;94553.66;5011820;28;20425;-74
2023/04/06 00:58:58;;;;;;;8.57;6.33;;;;;;;2.38;71.67;94559.81;5011383;28;20439;-74
2023/04/06 01:01:24;;;;;;;7.83;6.30;;;;;;;2.43;72.21;94547.13;5011964;28;20176;-74
2023/04/06 01:03:50;;;;;;;7.30;5.90;;;;;;;2.36;71.29;94548.78;5025630;28;20799;-74
2023/04/06 01:06:16;;;;;;;8.68;5.95;;;;;;;2.26;71.29;94543.78;5011037;28;20414;-74
2023/04/06 01:08:41;;;;;;;9.43;6.55;;;;;;;2.06;71.77;94547.75;5011571;28;20418;-74
2023/04/06 01:11:07;;;;;;;8.95;6.40;;;;;;;2.15;72.47;94543.34;5010668;28;20442;-74
2023/04/06 01:13:32;;;;;;;9.07;6.80;;;;;;;2.09;72.89;94531.00;5010944;28;20437;-74
2023/04/06 01:15:58;;;;;;;9.15;6.40;;;;;;;2.24;71.92;94534.56;5010306;28;20426;-74
2023/04/06 01:18:27;;;;;;;9.73;6.63;;;;;;;2.43;72.49;94536.72;5010195;28;20407;-74
2023/04/06 01:20:53;;;;;;;7.90;6.72;;;;;;;2.50;71.72;94542.06;5010352;28;20531;-74
2023/04/06 01:23:19;;;;;;;8.93;6.25;;;;;;;2.43;71.76;94510.75;5010862;28;20445;-74
2023/04/06 01:25:44;;;;;;;12.93;6.20;;;;;;;2.73;71.52;94535.13;5011638;28;20177;-74
2023/04/06 01:28:10;;;;;;;9.32;6.60;;;;;;;2.70;70.93;94543.25;5010490;28;20429;-74
2023/04/06 01:30:35;;;;;;;10.93;6.90;;;;;;;2.61;71.17;94516.50;5010874;28;20765;-74
2023/04/06 01:33:01;;;;;;;11.00;6.47;;;;;;;2.78;71.70;94529.41;5010026;28;20454;-74
2023/04/06 01:35:27;;;;;;;7.77;5.17;;;;;;;2.70;71.32;94516.47;5011573;28;20184;-74
2023/04/06 01:37:53;;;;;;;8.98;6.20;;;;;;;2.87;70.92;94528.38;5009416;28;20418;-74
2023/04/06 01:40:18;;;;;;;11.30;7.07;;;;;;;2.83;70.25;94533.13;5025239;28;20500;-74
2023/04/06 01:42:44;;;;;;;11.27;7.20;;;;;;;2.92;70.80;94531.28;4990882;28;20583;-74
2023/04/06 01:45:09;;;;;;;10.85;7.20;;;;;;;2.92;70.19;94534.72;4990267;28;20424;-74
2023/04/06 01:47:35;;;;;;;15.27;8.40;;;;;;;2.99;69.98;94527.03;5005701;28;20431;-74
2023/04/06 01:50:00;;;;;;;19.92;8.77;;;;;;;3.01;70.35;94532.88;4988691;28;20491;-74
2023/04/06 01:52:26;;;;;;;13.43;7.50;;;;;;;2.93;70.90;94523.34;4996149;28;20784;-74
2023/04/06 01:54:52;;;;;;;13.27;7.40;;;;;;;2.97;70.44;94526.38;4992486;28;20436;-74
2023/04/06 01:57:17;;;;;;;10.97;6.73;;;;;;;3.02;70.45;94526.69;4992930;28;20351;-74
2023/04/06 01:59:43;;;;;;;11.13;6.43;;;;;;;3.00;69.85;94511.25;5000989;28;20539;-74
2023/04/06 02:02:08;;;;;;;9.77;5.97;;;;;;;3.09;69.97;94514.59;4991732;28;20502;-73
2023/04/06 02:04:34;;;;;;;7.47;5.20;;;;;;;3.12;69.79;94516.03;4995173;28;20184;-73
2023/04/06 02:06:59;;;;;;;7.03;4.90;;;;;;;3.14;70.54;94517.47;5010683;28;20250;-73
2023/04/06 02:09:25;;;;;;;8.05;6.00;;;;;;;3.15;70.44;94524.31;5010113;28;20403;-73
2023/04/06 02:11:50;;;;;;;7.13;5.45;;;;;;;3.18;69.77;94510.97;5009600;28;20414;-73
2023/04/06 02:14:16;;;;;;;8.60;6.15;;;;;;;2.87;69.03;94512.78;5009486;28;20464;-73
2023/04/06 02:16:41;;;;;;;7.50;5.73;;;;;;;2.78;70.87;94486.03;5009554;28;20429;-73
2023/04/06 02:19:07;;;;;;;7.00;5.30;;;;;;;2.94;70.38;94509.31;4994773;28;20531;-73
2023/04/06 02:21:32;;;;;;;8.00;5.30;;;;;;;3.06;70.77;94508.94;4989768;28;20943;-74
2023/04/06 02:23:58;;;;;;;6.90;5.40;;;;;;;3.07;70.72;94511.38;4991162;28;20177;-74
2023/04/06 02:26:23;;;;;;;7.43;4.97;;;;;;;3.08;70.54;94509.56;4991319;28;20185;-74
2023/04/06 02:28:49;;;;;;;8.80;5.77;;;;;;;3.10;70.42;94516.22;4989767;28;20410;-73
2023/04/06 02:31:15;;;;;;;8.43;5.97;;;;;;;3.17;70.43;94518.94;4990576;28;20535;-73
2023/04/06 02:33:40;;;;;;;8.30;5.23;;;;;;;3.12;70.28;94516.84;5022287;28;20434;-73
2023/04/06 02:36:06;;;;;;;7.70;5.30;;;;;;;3.07;69.94;94519.16;5013134;28;20180;-73
2023/04/06 02:38:32;;;;;;;8.63;5.87;;;;;;;3.09;70.38;94506.81;5014509;28;20422;-74
2023/04/06 02:40:57;;;;;;;8.90;6.03;;;;;;;3.00;70.61;94513.84;5012881;28;20446;-73
2023/04/06 02:43:22;;;;;;;7.30;6.10;;;;;;;2.90;70.58;94517.66;5013068;28;20433;-73
2023/04/06 02:45:48;;;;;;;8.13;5.77;;;;;;;2.86;71.05;94514.59;4996668;28;20553;-73
2023/04/06 02:48:13;;;;;;;11.98;7.05;;;;;;;2.96;71.44;94516.97;5005772;28;20441;-74
2023/04/06 02:50:39;;;;;;;10.98;6.53;;;;;;;2.99;70.88;94514.03;5013857;28;20489;-74
2023/04/06 02:53:04;;;;;;;10.10;6.40;;;;;;;3.08;69.72;94515.59;5012718;28;20462;-74
2023/04/06 02:55:30;;;;;;;11.13;6.90;;;;;;;2.99;70.18;94522.63;5000313;28;20447;-74
2023/04/06 02:57:55;;;;;;;10.93;6.63;;;;;;;2.91;70.82;94503.69;5002611;28;20453;-74
2023/04/06 03:00:21;;;;;;;12.82;7.82;;;;;;;2.97;70.80;94510.78;5013668;28;20437;-74
2023/04/06 03:02:46;;;;;;;11.93;7.35;;;;;;;2.93;70.83;94512.94;5012741;28;20417;-74
2023/04/06 03:05:12;;;;;;;12.07;6.70;;;;;;;3.00;71.12;94510.44;5014192;28;20275;-74
2023/04/06 03:07:37;;;;;;;9.00;5.83;;;;;;;3.09;70.34;94517.22;5014220;28;20521;-74
2023/04/06 03:10:03;;;;;;;9.00;6.30;;;;;;;2.98;70.02;94494.19;5013379;28;20923;-74
2023/04/06 03:12:29;;;;;;;9.43;6.37;;;;;;;3.11;70.53;94511.84;5014118;28;20263;-75
2023/04/06 03:14:54;;;;;;;10.33;6.40;;;;;;;3.12;70.80;94514.25;5013391;28;20517;-74
2023/04/06 03:17:20;;;;;;;14.75;7.07;;;;;;;3.00;70.71;94487.03;5013281;28;20768;-74
2023/04/06 03:19:45;;;;;;;9.70;6.28;;;;;;;3.09;70.78;94519.81;5013756;28;21017;-74
2023/04/06 03:22:11;;;;;;;11.10;6.83;;;;;;;2.90;70.44;94460.47;5007146;28;20430;-74
2023/04/06 03:24:36;;;;;;;9.17;6.80;;;;;;;3.19;69.97;94504.78;5001351;28;20432;-74
2023/04/06 03:27:02;;;;;;;9.23;6.23;;;;;;;3.24;70.13;94507.66;4994136;28;20192;-74
2023/04/06 03:29:27;;;;;;;11.07;6.30;;;;;;;3.24;69.58;94512.88;4993572;28;20967;-74
2023/04/06 03:31:52;;;;;;;11.03;7.50;;;;;;;3.16;69.32;94480.91;4992905;28;20436;-75
2023/04/06 03:34:18;;;;;;;9.07;6.70;;;;;;;3.01;69.09;94510.28;4994256;28;20446;-75
2023/04/06 03:36:43;;;;;;;8.97;6.73;;;;;;;2.99;69.71;94506.22;5002602;28;20443;-75
2023/04/06 03:39:09;;;;;;;11.07;7.10;;;;;;;3.00;69.80;94506.06;5002157;28;20470;-75
2023/04/06 03:41:34;;;;;;;11.10;7.43;;;;;;;2.90;69.46;94507.25;5011449;28;20434;-75
2023/04/06 03:43:59;;;;;;;10.60;7.47;;;;;;;2.86;69.58;94506.78;5012246;28;20422;-75
2023/04/06 03:46:25;;;;;;;9.27;5.97;;;;;;;2.80;69.58;94506.66;5011164;28;20417;-75
2023/04/06 03:48:50;;;;;;;10.20;6.38;;;;;;;2.79;70.25;94498.06;4994091;28;20774;-75
2023/04/06 03:51:16;;;;;;;10.57;7.27;;;;;;;2.83;70.51;94504.53;5004435;28;20422;-75
2023/04/06 03:53:41;;;;;;;9.07;6.57;;;;;;;2.82;70.41;94491.72;5011726;28;21167;-75
2023/04/06 03:56:08;;;;;;;10.97;7.13;;;;;;;3.04;70.41;94503.91;5001949;28;20221;-75
2023/04/06 03:58:33;;;;;;;8.70;6.03;;;;;;;3.10;69.70;94507.63;5002030;28;20239;-74
2023/04/06 04:00:58;;;;;;;16.20;8.27;;;;;;;3.17;69.83;94513.75;4993186;28;20428;-75
2023/04/06 04:03:26;;;;;;;14.20;8.43;;;;;;;3.16;69.43;94501.72;4992734;28;20928;-75
2023/04/06 04:05:52;;;;;;;14.35;8.20;;;;;;;3.00;69.74;94477.47;4992658;28;20906;-75
2023/04/06 04:08:17;;;;;;;12.03;7.00;;;;;;;3.17;70.25;94511.13;5004799;28;20425;-75
2023/04/06 04:10:43;;;;;;;13.75;8.15;;;;;;;3.18;71.01;94507.56;4997975;28;20420;-75
2023/04/06 04:13:08;;;;;;;12.70;8.55;;;;;;;2.97;71.98;94480.41;5010248;28;20808;-75
2023/04/06 04:15:34;;;;;;;11.63;8.60;;;;;;;2.84;72.55;94461.19;5012065;28;20419;-75
2023/04/06 04:17:59;;;;;;;12.60;7.80;;;;;;;3.02;73.07;94485.09;5013577;28;20262;-74
2023/04/06 04:20:25;;;;;;;14.00;8.47;;;;;;;3.17;73.57;94498.94;5013182;28;20204;-75
2023/04/06 04:22:50;;;;;;;12.07;8.50;;;;;;;3.18;73.29;94497.16;5002294;28;20427;-74
2023/04/06 04:25:16;;;;;;;12.33;7.13;;;;;;;3.10;72.68;94481.63;4996333;28;20553;-74
2023/04/06 04:27:41;;;;;;;10.93;6.93;;;;;;;3.24;70.81;94506.84;4991602;28;20415;-74
2023/04/06 04:30:07;;;;;;;11.60;7.88;;;;;;;3.27;69.75;94507.31;4990954;28;20416;-74
2023/04/06 04:32:32;;;;;;;13.73;7.93;;;;;;;3.08;69.04;94510.38;4990836;28;20970;-74
2023/04/06 04:34:58;;;;;;;14.37;8.63;;;;;;;3.12;70.71;94496.03;4991527;28;20427;-73
2023/04/06 04:37:23;;;;;;;9.07;6.27;;;;;;;3.17;69.83;94508.53;5005633;28;20566;-74
2023/04/06 04:39:49;;;;;;;15.20;9.32;;;;;;;3.21;69.58;94504.59;5010878;28;20437;-73
2023/04/06 04:42:15;;;;;;;11.50;6.83;;;;;;;3.11;69.79;94494.44;5001131;28;20242;-73
2023/04/06 04:44:40;;;;;;;9.97;6.63;;;;;;;3.27;70.14;94519.50;4992083;28;20431;-73
2023/04/06 04:47:06;;;;;;;9.57;6.70;;;;;;;3.23;70.05;94511.25;4990541;28;20416;-73
2023/04/06 04:49:31;;;;;;;15.27;6.37;;;;;;;3.21;70.62;94509.78;4993974;28;20177;-74
2023/04/06 04:51:57;;;;;;;11.13;7.70;;;;;;;3.21;69.89;94499.38;5006605;28;20526;-74
2023/04/06 04:54:22;;;;;;;11.40;7.17;;;;;;;3.10;70.70;94472.03;5006454;28;20224;-74
2023/04/06 04:56:48;;;;;;;14.23;8.20;;;;;;;3.47;70.37;94499.00;4991321;28;20678;-74
2023/04/06 04:59:13;;;;;;;13.25;8.20;;;;;;;3.58;70.53;94509.81;4990988;28;20436;-74
2023/04/06 05:01:39;;;;;;;12.30;7.80;;;;;;;3.70;70.68;94513.63;5003014;28;20180;-74
2023/04/06 05:04:05;;;;;;;15.17;8.53;;;;;;;3.74;70.04;94507.06;5000836;28;20260;-74
2023/04/06 05:06:30;;;;;;;19.03;10.50;;;;;;;3.69;69.80;94503.38;4990965;28;20451;-74
2023/04/06 05:08:56;;;;;;;14.13;8.43;;;;;;;3.68;69.80;94510.38;4998363;28;20417;-74
2023/04/06 05:11:21;;;;;;;11.33;6.87;;;;;;;3.70;69.30;94508.41;5007406;28;20184;-74
2023/04/06 05:13:47;;;;;;;14.23;6.97;;;;;;;3.66;69.53;94491.53;4991906;28;20680;-74
2023/04/06 05:16:12;;;;;;;11.00;6.93;;;;;;;3.78;69.31;94508.31;4991922;28;20177;-74
2023/04/06 05:18:38;;;;;;;15.43;7.33;;;;;;;3.83;69.88;94510.38;5000616;28;20265;-74
2023/04/06 05:21:03;;;;;;;12.13;7.20;;;;;;;3.85;69.12;94515.41;5005019;28;20194;-74
2023/04/06 05:23:29;;;;;;;12.20;7.67;;;;;;;3.84;69.56;94509.41;5001372;28;20183;-74
2023/04/06 05:25:54;;;;;;;11.60;6.90;;;;;;;3.82;69.05;94513.97;5004631;28;20188;-74
2023/04/06 05:28:20;;;;;;;15.00;8.03;;;;;;;3.83;69.39;94505.19;4992066;28;20386;-74
2023/04/06 05:30:48;;;;;;;14.10;6.97;;;;;;;3.77;70.07;94511.09;4991709;28;20184;-74
2023/04/06 05:33:13;;;;;;;16.97;6.93;;;;;;;3.80;69.98;94508.16;4992040;28;20231;-74
2023/04/06 05:35:39;;;;;;;12.40;6.57;;;;;;;3.68;70.05;94491.34;5007374;28;20611;-75
2023/04/06 05:38:08;;;;;;;13.37;7.13;;;;;;;3.76;69.93;94504.28;5011348;28;20184;-74
2023/04/06 05:40:34;;;;;;;10.00;6.83;;;;;;;3.75;70.29;94502.66;5011110;28;20210;-74
2023/04/06 05:43:00;;;;;;;14.83;6.90;;;;;;;3.61;69.95;94482.63;5001812;28;20201;-74
2023/04/06 05:45:25;;;;;;;15.63;8.20;;;;;;;3.65;70.56;94494.28;5000110;28;20181;-75
2023/04/06 05:47:51;;;;;;;14.50;8.43;;;;;;;3.61;70.92;94493.03;4991745;28;20192;-75
2023/04/06 05:50:16;;;;;;;15.33;8.97;;;;;;;3.68;71.25;94501.75;5022965;28;20188;-75
2023/04/06 05:52:43;;;;;;;15.13;8.23;;;;;;;3.71;71.54;94501.41;5000862;28;20200;-75
2023/04/06 05:55:09;;;;;;;13.20;8.40;;;;;;;3.77;71.21;94503.28;5003138;28;20220;-75
2023/04/06 05:57:34;;;;;;;14.17;9.13;;;;;;;3.77;71.74;94504.09;4996491;28;20169;-75
2023/04/06 06:00:00;;;;;;;19.87;8.40;;;;;;;3.78;71.49;94491.91;4991475;28;20271;-75
2023/04/06 06:02:25;;;;;;;18.80;9.10;;;;;;;3.82;72.00;94487.94;5001055;28;20183;-75
2023/04/06 06:04:51;;;;;;;20.03;8.60;;;;;;;3.93;71.84;94491.91;5003701;28;20650;-75
2023/04/06 06:07:17;;;;;;;11.97;6.87;;;;;;;3.86;71.32;94478.00;4997725;28;20234;-75
2023/04/06 06:09:43;;;;;;;14.27;7.70;;;;;;;3.87;71.65;94487.41;4993363;28;20185;-75
2023/04/06 06:12:08;;;;;;;14.23;8.30;;;;;;;3.84;71.78;94470.34;4991365;28;20192;-75
2023/04/06 06:14:34;;;;;;;15.17;9.40;;;;;;;3.94;71.83;94493.53;5006215;28;20193;-75
2023/04/06 06:16:59;;;;;;;16.33;9.10;;;;;;;3.86;71.83;94484.00;4991483;28;20913;-75
2023/04/06 06:19:25;;;;;;;12.17;7.60;;;;;;;3.92;71.78;94480.69;4991068;28;20201;-75
2023/04/06 06:21:50;;;;;;;12.87;7.73;;;;;;;4.06;71.59;94471.28;4991278;28;20203;-75
2023/04/06 06:24:16;;;;;;;13.60;7.77;;;;;;;4.41;71.31;94488.72;5005773;28;20188;-75
2023/04/06 06:26:42;;;;;;;13.70;8.27;;;;;;;4.64;70.94;94483.41;4998298;28;20189;-75
2023/04/06 06:29:08;;;;;;;13.30;8.57;;;;;;;4.85;69.87;94488.63;4991200;28;20177;-75
2023/04/06 06:31:33;;;;;;;13.03;8.40;;;;;;;4.89;69.22;94486.47;5014833;28;20649;-75
2023/04/06 06:33:59;;;;;;;23.27;9.83;;;;;;;4.89;68.67;94468.22;4999866;28;20184;-75
2023/04/06 06:36:25;;;;;;;18.00;10.90;;;;;;;4.98;69.00;94472.31;5006350;28;20287;-75
2023/04/06 06:38:51;;;;;;;13.87;8.50;;;;;;;5.07;69.29;94489.47;5007665;28;20196;-75
2023/04/06 06:41:17;;;;;;;12.33;7.17;;;;;;;5.12;68.59;94496.72;5005196;28;20234;-76
2023/04/06 06:43:42;;;;;;;11.30;7.00;;;;;;;5.15;69.11;94489.34;5010520;28;20180;-75
2023/04/06 06:46:08;;;;;;;14.63;8.57;;;;;;;5.25;68.12;94492.44;4999558;28;20181;-72
2023/04/06 06:48:33;;;;;;;13.77;7.90;;;;;;;5.43;68.33;94473.72;5006593;28;20187;-74
2023/04/06 06:50:59;;;;;;;12.43;8.20;;;;;;;5.98;65.97;94496.44;4992040;28;20191;-74
2023/04/06 06:53:24;;;;;;;10.77;7.43;;;;;;;6.26;66.22;94498.22;5005001;28;20176;-74
2023/04/06 06:55:50;;;;;;;14.07;7.63;;;;;;;6.56;65.55;94512.66;5010752;28;20336;-74
2023/04/06 06:58:18;;;;;;;12.10;7.67;;;;;;;7.16;65.34;94500.56;5010784;28;20180;-74
2023/04/06 07:00:43;;;;;;;17.17;8.07;;;;;;;7.87;62.06;94501.59;5011063;28;20641;-76
2023/04/06 07:03:09;;;;;;;15.00;7.87;;;;;;;8.21;59.64;94507.63;5000862;28;20180;-76
2023/04/06 07:05:35;;;;;;;12.13;8.67;;;;;;;8.22;60.69;94499.53;5005230;28;20181;-76
2023/04/06 07:08:00;;;;;;;13.93;8.47;;;;;;;8.25;59.55;94514.06;5011204;28;20259;-75
2023/04/06 07:10:26;;;;;;;13.07;7.07;;;;;;;8.12;59.39;94514.09;5018478;28;20176;-75
2023/04/06 07:12:51;;;;;;;14.13;9.07;;;;;;;7.92;59.92;94514.91;4995912;28;20181;-75
2023/04/06 07:15:17;;;;;;;12.87;8.63;;;;;;;7.78;59.84;94510.72;4999424;28;20196;-75
2023/04/06 07:17:44;;;;;;;13.33;8.60;;;;;;;7.48;60.19;94512.09;4990988;28;20185;-74
2023/04/06 07:20:11;;;;;;;17.27;7.83;;;;;;;7.29;60.87;94508.44;4999168;28;20213;-75
2023/04/06 07:22:38;;;;;;;13.17;7.70;;;;;;;7.20;62.60;94499.97;5014270;28;20563;-75
2023/04/06 07:25:04;;;;;;;11.43;7.27;;;;;;;7.16;62.27;94509.22;4998844;28;20620;-75
2023/04/06 07:27:29;;;;;;;13.53;8.50;;;;;;;7.12;61.99;94484.44;5002933;28;20181;-75
2023/04/06 07:29:55;;;;;;;12.50;8.83;;;;;;;7.34;61.82;94513.09;5008284;28;20551;-75
2023/04/06 07:32:20;;;;;;;12.73;7.97;;;;;;;7.30;62.18;94509.25;5014069;28;20192;-75
2023/04/06 07:34:46;;;;;;;10.03;6.87;;;;;;;7.20;60.84;94505.19;5014179;28;20176;-75
2023/04/06 07:37:12;;;;;;;13.63;8.13;;;;;;;7.10;62.14;94507.38;5005185;28;20259;-74
2023/04/06 07:39:37;;;;;;;10.40;7.03;;;;;;;7.05;61.13;94506.38;4994328;28;20690;-74
2023/04/06 07:42:03;;;;;;;12.30;7.27;;;;;;;7.08;62.18;94506.00;4999862;28;20716;-74
2023/04/06 07:44:28;;;;;;;11.07;7.10;;;;;;;7.08;61.43;94500.75;5008776;28;20248;-74
2023/04/06 07:46:54;;;;;;;11.13;7.10;;;;;;;6.97;62.16;94486.44;5005495;28;20584;-74
2023/04/06 07:49:20;;;;;;;10.97;7.20;;;;;;;7.48;60.96;94502.41;4994176;28;20185;-74
2023/04/06 07:51:46;;;;;;;12.50;8.03;;;;;;;7.86;60.89;94496.59;5006021;28;20170;-75
2023/04/06 07:54:11;;;;;;;9.07;6.70;;;;;;;8.32;59.53;94512.25;5002424;28;20200;-75
2023/04/06 07:56:37;;;;;;;11.77;7.30;;;;;;;8.50;58.75;94507.19;5010145;28;20639;-74
2023/04/06 07:59:02;;;;;;;11.23;7.77;;;;;;;8.68;58.56;94507.31;4997772;28;20205;-75
2023/04/06 08:01:29;;;;;;;11.37;7.17;;;;;;;8.83;57.07;94503.63;4997953;28;20277;-75
2023/04/06 08:03:55;;;;;;;13.43;8.50;;;;;;;8.87;59.13;94507.47;4999371;28;20191;-75
2023/04/06 08:06:21;;;;;;;11.23;7.17;;;;;;;9.06;57.48;94512.63;5009116;28;20279;-75
2023/04/06 08:08:46;;;;;;;10.50;7.47;;;;;;;9.15;57.82;94507.94;5013442;28;20180;-75
2023/04/06 08:11:12;;;;;;;9.47;6.50;;;;;;;9.16;56.83;94487.72;5010736;28;20189;-75
2023/04/06 08:13:37;;;;;;;11.27;7.47;;;;;;;8.99;56.47;94487.41;4997071;28;20185;-75
2023/04/06 08:16:03;;;;;;;8.37;6.27;;;;;;;9.21;57.60;94504.44;5006535;28;20184;-74
2023/04/06 08:18:29;;;;;;;14.73;6.07;;;;;;;9.33;55.72;94491.47;5013091;28;20176;-74
2023/04/06 08:20:56;;;;;;;10.70;6.33;;;;;;;9.15;56.07;94470.38;5003044;28;20184;-74
2023/04/06 08:23:22;;;;;;;7.03;5.43;;;;;;;9.54;56.17;94504.25;4999692;28;20184;-74
2023/04/06 08:25:48;;;;;;;10.50;7.20;;;;;;;9.77;55.41;94507.09;5007070;28;20196;-74
2023/04/06 08:28:13;;;;;;;9.83;6.30;;;;;;;9.69;54.20;94496.84;5005911;28;20243;-75
2023/04/06 08:30:42;;;;;;;10.00;6.47;;;;;;;9.69;54.98;94509.19;4997383;28;20239;-75
2023/04/06 08:33:08;;;;;;;9.23;6.33;;;;;;;9.54;54.16;94506.88;5014719;28;20176;-74
2023/04/06 08:35:34;;;;;;;11.93;7.40;;;;;;;9.32;54.75;94511.66;5004246;28;20251;-75
2023/04/06 08:38:00;;;;;;;9.43;7.13;;;;;;;9.25;55.87;94516.16;5007185;28;20177;-75
2023/04/06 08:40:25;;;;;;;15.20;7.23;;;;;;;9.27;55.32;94498.34;5001277;28;20296;-75
2023/04/06 08:43:03;;;;;;;12.70;8.07;;;;;;;9.37;55.55;94503.94;5011864;28;20176;-75
2023/04/06 08:45:29;;;;;;;8.87;6.33;;;;;;;9.30;54.75;94502.38;5010942;28;20209;-74
2023/04/06 08:47:58;;;;;;;13.67;7.30;;;;;;;9.44;55.96;94509.97;5011452;28;20180;-74
2023/04/06 08:50:24;;;;;;;12.70;7.13;;;;;;;9.58;54.65;94509.88;5011277;28;20179;-74
2023/04/06 08:52:50;;;;;;;14.10;7.63;;;;;;;9.65;54.70;94500.94;5011043;28;20180;-74
2023/04/06 08:55:17;;;;;;;15.63;8.67;;;;;;;9.60;52.98;94513.88;5010916;28;20646;-74
2023/04/06 08:57:45;;;;;;;17.10;10.33;;;;;;;9.53;55.24;94494.75;5011100;28;20188;-74
2023/04/06 09:00:11;;;;;;;12.73;8.30;;;;;;;9.84;54.27;94499.19;5011181;28;20295;-75
2023/04/06 09:02:42;;;;;;;12.23;8.23;;;;;;;10.12;54.73;94507.41;5012027;28;20563;-75
2023/04/06 09:05:09;;;;;;;10.70;6.37;;;;;;;10.34;53.01;94505.22;5012094;28;20183;-74
2023/04/06 09:07:36;;;;;;;9.33;6.80;;;;;;;10.69;53.55;94505.47;5011762;28;20234;-74
2023/04/06 09:10:03;;;;;;;10.37;6.83;;;;;;;10.79;53.33;94476.78;5000854;28;20169;-74
2023/04/06 09:12:31;;;;;;;8.53;6.17;;;;;;;10.81;50.99;94487.88;5010929;28;20176;-75
2023/04/06 09:14:57;;;;;;;9.77;7.23;;;;;;;11.23;53.03;94493.25;5010972;28;20183;-75
2023/04/06 09:17:25;;;;;;;10.67;6.77;;;;;;;11.25;52.95;94481.44;4993102;28;20176;-74
2023/04/06 09:19:51;;;;;;;8.97;6.20;;;;;;;11.26;50.90;94488.31;4996687;28;20228;-74
2023/04/06 09:22:17;;;;;;;9.27;6.37;;;;;;;11.18;51.05;94485.19;4991293;28;20632;-75
2023/04/06 09:24:48;;;;;;;10.87;6.57;;;;;;;10.83;50.62;94488.47;5009544;28;20184;-75
2023/04/06 09:27:14;;;;;;;9.90;6.00;;;;;;;10.33;50.95;94487.81;5009012;28;20184;-75
2023/04/06 09:29:44;;;;;;;13.20;8.07;;;;;;;9.58;52.51;94455.50;5009171;28;20168;-74
2023/04/06 09:32:10;;;;;;;8.53;6.70;;;;;;;9.54;52.93;94488.47;5009489;28;20188;-74
2023/04/06 09:34:39;;;;;;;8.50;6.10;;;;;;;9.33;53.15;94486.22;5011566;28;20180;-74
2023/04/06 09:37:20;;;;;;;10.80;6.30;;;;;;;9.22;53.29;94474.56;4999264;28;20548;-75
2023/04/06 09:39:46;;;;;;;13.30;7.13;;;;;;;9.31;56.32;94462.78;5006362;28;20266;-75
2023/04/06 09:42:24;;;;;;;15.50;8.53;;;;;;;9.55;52.97;94478.78;5005321;28;20196;-76
2023/04/06 09:44:50;;;;;;;9.67;6.73;;;;;;;9.57;53.63;94466.22;5004667;28;20180;-76
2023/04/06 09:47:16;;;;;;;13.37;8.37;;;;;;;9.38;53.15;94479.28;5007417;28;20234;-75
2023/04/06 09:49:43;;;;;;;11.87;7.37;;;;;;;9.56;54.81;94468.06;4992410;28;20515;-75
2023/04/06 09:52:11;;;;;;;12.20;8.97;;;;;;;9.57;53.37;94476.75;5008565;28;20188;-75
2023/04/06 09:54:38;;;;;;;12.73;7.20;;;;;;;9.77;53.43;94477.41;4991973;28;20235;-76
2023/04/06 09:57:28;;;;;;;14.30;7.23;;;;;;;9.86;54.81;94476.09;4992009;28;20181;-75
2023/04/06 10:00:11;;;;;;;11.53;6.93;;;;;;;9.93;53.39;94482.13;5006310;28;20203;-75
2023/04/06 10:02:54;;;;;;;10.07;7.27;;;;;;;9.86;52.20;94475.31;5004373;28;20222;-75
2023/04/06 10:05:25;;;;;;;9.37;6.70;;;;;;;9.68;53.74;94470.81;5005024;28;20176;-75
2023/04/06 10:07:56;;;;;;;11.70;6.63;;;;;;;9.80;52.64;94483.00;5006067;28;20195;-76
2023/04/06 10:10:21;;;;;;;8.63;6.37;;;;;;;9.87;52.84;94466.38;5000690;28;20161;-75
2023/04/06 10:12:48;;;;;;;10.80;6.30;;;;;;;9.84;54.45;94478.16;5003102;28;20184;-75
2023/04/06 10:15:14;;;;;;;12.57;7.10;;;;;;;9.81;52.87;94460.16;5001798;28;20564;-75
2023/04/06 10:17:39;;;;;;;12.20;7.47;;;;;;;9.85;54.08;94469.25;5002413;28;20645;-76
2023/04/06 10:20:23;;;;;;;12.33;7.97;;;;;;;10.01;54.76;94471.31;4997495;28;20259;-74
2023/04/06 10:22:59;;;;;;;9.30;6.03;;;;;;;9.87;52.94;94463.75;4999512;28;20184;-75
2023/04/06 10:25:30;;;;;;;9.30;6.10;;;;;;;10.01;53.09;94483.66;5005490;28;20611;-75
2023/04/06 10:28:01;;;;;;;11.27;6.03;;;;;;;10.13;52.02;94466.94;4999271;28;20188;-75
2023/04/06 10:30:27;;;;;;;10.93;7.63;;;;;;;10.15;53.29;94458.84;5002081;28;20232;-76
2023/04/06 10:32:53;;;;;;;12.57;8.63;;;;;;;10.33;53.65;94458.06;5002061;28;20267;-76
2023/04/06 10:35:18;;;;;;;12.87;6.87;;;;;;;10.36;54.29;94450.56;4993166;28;20288;-76
2023/04/06 10:38:00;;;;;;;9.83;6.17;;;;;;;10.34;52.50;94457.06;5001347;28;20168;-76
2023/04/06 10:40:26;;;;;;;12.13;7.10;;;;;;;10.40;52.52;94458.81;5010938;28;20755;-76
2023/04/06 10:42:54;;;;;;;7.90;5.70;;;;;;;10.16;50.56;94436.78;4994921;28;20181;-76
2023/04/06 10:45:21;;;;;;;7.73;5.47;;;;;;;10.17;51.90;94444.47;5001803;28;20233;-76
2023/04/06 10:47:46;;;;;;;8.73;5.77;;;;;;;10.20;53.47;94440.63;5005442;28;20184;-76
2023/04/06 10:50:16;;;;;;;9.00;6.30;;;;;;;10.38;52.89;94447.72;5001138;28;20681;-79
2023/04/06 10:52:41;;;;;;;8.33;5.50;;;;;;;10.14;49.25;94436.19;4993795;28;20173;-75
2023/04/06 10:55:11;;;;;;;11.20;7.30;;;;;;;10.01;52.08;94458.16;4998826;28;20744;-75
2023/04/06 10:57:37;;;;;;;9.40;7.13;;;;;;;9.79;51.75;94449.88;5017678;28;20192;-75
2023/04/06 11:00:05;;;;;;;12.83;6.77;;;;;;;9.68;52.71;94442.69;5003171;28;20274;-75
2023/04/06 11:02:31;;;;;;;15.77;7.17;;;;;;;9.66;53.08;94450.00;5010893;28;20883;-75
2023/04/06 11:04:58;;;;;;;14.30;7.80;;;;;;;9.69;51.40;94452.16;4998724;28;20177;-75
2023/04/06 11:07:25;;;;;;;11.43;6.97;;;;;;;9.76;52.27;94450.31;5010516;28;20176;-75
2023/04/06 11:09:51;;;;;;;8.07;5.90;;;;;;;9.69;52.33;94418.00;5003744;28;20241;-76
2023/04/06 11:12:25;;;;;;;17.23;8.17;;;;;;;9.76;53.16;94415.34;4999798;28;20260;-75
2023/04/06 11:15:05;;;;;;;11.00;7.63;;;;;;;9.99;53.30;94431.28;4994854;28;20180;-75
2023/04/06 11:17:33;;;;;;;9.17;5.93;;;;;;;9.84;52.56;94409.81;5007315;28;20272;-76
2023/04/06 11:19:58;;;;;;;13.23;6.43;;;;;;;9.77;51.84;94433.50;4997851;28;20358;-75
2023/04/06 11:22:25;;;;;;;9.00;5.90;;;;;;;9.65;52.29;94422.09;5008592;28;20606;-75
2023/04/06 11:24:51;;;;;;;12.53;7.50;;;;;;;9.58;51.37;94426.59;5007311;28;20170;-74
2023/04/06 11:27:17;;;;;;;8.23;5.53;;;;;;;9.30;51.95;94397.31;4997132;28;20177;-75
2023/04/06 11:29:43;;;;;;;14.40;6.90;;;;;;;9.45;53.08;94427.50;5010123;28;20207;-75